Burwell, Nebraska
Current Conditions -  °F | °C
As of 7:53 PM on Monday 22 Dec 2014 (Local Time) from KBBW Reporting Station
Light Snow Light Snow  
Wind Chill: 22°   Ceiling: 3800
Heat Index: 35°   Visibility: 6mi
Dew Point: 31°   Wind: 26mph
Humidity: 85%   Direction: 330°NNW
Pressure: 29.53"   Gusts: 33mph
Location:  41.78°N, 99.13°W
Report Text: KBBW 230153Z AUTO 33023G29KT 6SM -SN BR FEW012 BKN038 OVC046 02/M01 A2953 RMK AO2 PK WND 34029/0153 RAB0056E02UPB28E30SNB02E28B36 SLP012 P0001 T00171006
Loading
Personal Weather Stations






























Interactive Weather Map New forecast layout! Learn more

10-Day Weather Forecast

Advertisements
Track Severe Weather on mobile